sensor_id;sensor_type;location;lat;lon;timestamp;pressure;altitude;pressure_sealevel;temperature;humidity
56270;BME280;42176;43.240;27.880;2023-12-04T00:01:28;100691.28;;;2.75;100.00
56270;BME280;42176;43.240;27.880;2023-12-04T00:03:29;100702.84;;;2.42;100.00
56270;BME280;42176;43.240;27.880;2023-12-04T00:05:29;100702.44;;;2.66;100.00
56270;BME280;42176;43.240;27.880;2023-12-04T00:07:30;100716.53;;;3.20;100.00
56270;BME280;42176;43.240;27.880;2023-12-04T00:09:31;100707.75;;;3.18;100.00
56270;BME280;42176;43.240;27.880;2023-12-04T00:11:31;100695.22;;;2.54;100.00
56270;BME280;42176;43.240;27.880;2023-12-04T00:13:33;100712.81;;;2.17;100.00
56270;BME280;42176;43.240;27.880;2023-12-04T00:15:33;100694.38;;;2.55;100.00
56270;BME280;42176;43.240;27.880;2023-12-04T00:17:34;100708.91;;;2.84;100.00
56270;BME280;42176;43.240;27.880;2023-12-04T00:19:39;100698.31;;;3.28;100.00
56270;BME280;42176;43.240;27.880;2023-12-04T00:21:40;100704.38;;;2.75;100.00
56270;BME280;42176;43.240;27.880;2023-12-04T00:23:40;100703.13;;;2.13;100.00
56270;BME280;42176;43.240;27.880;2023-12-04T00:25:41;100711.22;;;2.25;100.00
56270;BME280;42176;43.240;27.880;2023-12-04T00:27:42;100722.25;;;2.53;100.00
56270;BME280;42176;43.240;27.880;2023-12-04T00:29:42;100730.50;;;2.73;100.00
56270;BME280;42176;43.240;27.880;2023-12-04T00:31:43;100733.47;;;2.91;100.00
56270;BME280;42176;43.240;27.880;2023-12-04T00:33:43;100748.47;;;3.01;100.00
56270;BME280;42176;43.240;27.880;2023-12-04T00:35:44;100765.06;;;3.00;100.00
56270;BME280;42176;43.240;27.880;2023-12-04T00:37:44;100768.72;;;3.08;100.00
56270;BME280;42176;43.240;27.880;2023-12-04T00:39:45;100786.50;;;3.25;100.00
56270;BME280;42176;43.240;27.880;2023-12-04T00:41:45;100794.09;;;2.68;100.00
56270;BME280;42176;43.240;27.880;2023-12-04T00:43:46;100807.38;;;1.97;100.00
56270;BME280;42176;43.240;27.880;2023-12-04T00:45:46;100810.34;;;2.13;100.00
56270;BME280;42176;43.240;27.880;2023-12-04T00:47:47;100814.28;;;2.34;100.00
56270;BME280;42176;43.240;27.880;2023-12-04T00:49:48;100800.66;;;2.47;100.00
56270;BME280;42176;43.240;27.880;2023-12-04T00:51:48;100775.53;;;3.00;100.00
56270;BME280;42176;43.240;27.880;2023-12-04T00:53:49;100762.63;;;2.65;100.00
56270;BME280;42176;43.240;27.880;2023-12-04T00:55:49;100757.81;;;2.04;100.00
56270;BME280;42176;43.240;27.880;2023-12-04T00:57:50;100759.94;;;2.20;100.00
56270;BME280;42176;43.240;27.880;2023-12-04T00:59:50;100762.00;;;2.35;100.00
56270;BME280;42176;43.240;27.880;2023-12-04T01:01:51;100762.28;;;2.49;100.00
56270;BME280;42176;43.240;27.880;2023-12-04T01:03:51;100761.59;;;3.01;100.00
56270;BME280;42176;43.240;27.880;2023-12-04T01:05:52;100733.78;;;2.62;100.00
56270;BME280;42176;43.240;27.880;2023-12-04T01:07:52;100737.72;;;2.01;100.00
56270;BME280;42176;43.240;27.880;2023-12-04T01:09:53;100740.31;;;2.00;100.00
56270;BME280;42176;43.240;27.880;2023-12-04T01:11:54;100747.03;;;2.28;100.00
56270;BME280;42176;43.240;27.880;2023-12-04T01:13:54;100739.34;;;2.36;100.00
56270;BME280;42176;43.240;27.880;2023-12-04T01:15:55;100763.44;;;2.62;100.00
56270;BME280;42176;43.240;27.880;2023-12-04T01:17:56;100756.44;;;2.61;100.00
56270;BME280;42176;43.240;27.880;2023-12-04T01:19:56;100746.50;;;2.03;100.00
56270;BME280;42176;43.240;27.880;2023-12-04T01:21:57;100748.00;;;1.55;100.00
56270;BME280;42176;43.240;27.880;2023-12-04T01:23:58;100781.78;;;1.84;100.00
56270;BME280;42176;43.240;27.880;2023-12-04T01:25:59;100806.78;;;2.09;100.00
56270;BME280;42176;43.240;27.880;2023-12-04T01:27:59;100815.78;;;2.22;100.00
56270;BME280;42176;43.240;27.880;2023-12-04T01:30:00;100811.78;;;2.78;100.00
56270;BME280;42176;43.240;27.880;2023-12-04T01:32:00;100815.59;;;2.13;100.00
56270;BME280;42176;43.240;27.880;2023-12-04T01:34:01;100830.72;;;1.55;100.00
56270;BME280;42176;43.240;27.880;2023-12-04T01:36:02;100835.97;;;1.91;100.00
56270;BME280;42176;43.240;27.880;2023-12-04T01:38:03;100845.13;;;2.09;100.00
56270;BME280;42176;43.240;27.880;2023-12-04T01:40:04;100839.66;;;2.36;100.00
56270;BME280;42176;43.240;27.880;2023-12-04T01:42:07;100838.72;;;2.72;100.00
56270;BME280;42176;43.240;27.880;2023-12-04T01:44:07;100838.28;;;2.14;100.00
56270;BME280;42176;43.240;27.880;2023-12-04T01:46:09;100829.41;;;1.72;100.00
56270;BME280;42176;43.240;27.880;2023-12-04T01:48:10;100841.38;;;1.97;100.00
56270;BME280;42176;43.240;27.880;2023-12-04T01:50:12;100840.09;;;2.18;100.00
56270;BME280;42176;43.240;27.880;2023-12-04T01:52:14;100859.53;;;2.66;100.00
56270;BME280;42176;43.240;27.880;2023-12-04T01:54:16;100855.78;;;2.18;100.00
56270;BME280;42176;43.240;27.880;2023-12-04T01:56:17;100871.25;;;1.72;100.00
56270;BME280;42176;43.240;27.880;2023-12-04T01:58:18;100873.88;;;1.74;100.00
56270;BME280;42176;43.240;27.880;2023-12-04T02:00:19;100887.16;;;1.81;100.00
56270;BME280;42176;43.240;27.880;2023-12-04T02:02:21;100893.41;;;1.88;100.00
56270;BME280;42176;43.240;27.880;2023-12-04T02:04:22;100890.34;;;2.40;100.00
56270;BME280;42176;43.240;27.880;2023-12-04T02:06:22;100890.97;;;1.94;100.00
56270;BME280;42176;43.240;27.880;2023-12-04T02:08:23;100885.38;;;1.47;100.00
56270;BME280;42176;43.240;27.880;2023-12-04T02:10:24;100900.97;;;1.44;100.00
56270;BME280;42176;43.240;27.880;2023-12-04T02:12:25;100901.38;;;1.59;100.00
56270;BME280;42176;43.240;27.880;2023-12-04T02:14:26;100889.31;;;1.63;100.00
56270;BME280;42176;43.240;27.880;2023-12-04T02:16:29;100903.00;;;1.88;100.00
56270;BME280;42176;43.240;27.880;2023-12-04T02:18:31;100898.19;;;2.05;100.00
56270;BME280;42176;43.240;27.880;2023-12-04T02:20:33;100889.75;;;2.53;100.00
56270;BME280;42176;43.240;27.880;2023-12-04T02:22:34;100869.22;;;1.95;100.00
56270;BME280;42176;43.240;27.880;2023-12-04T02:24:35;100869.09;;;1.25;100.00
56270;BME280;42176;43.240;27.880;2023-12-04T02:29:09;100885.63;;;1.56;100.00
56270;BME280;42176;43.240;27.880;2023-12-04T02:31:12;100901.88;;;1.78;100.00
56270;BME280;42176;43.240;27.880;2023-12-04T02:33:13;100924.16;;;1.97;100.00
56270;BME280;42176;43.240;27.880;2023-12-04T02:35:16;100941.63;;;1.34;100.00
56270;BME280;42176;43.240;27.880;2023-12-04T02:37:20;100949.63;;;0.81;100.00
56270;BME280;42176;43.240;27.880;2023-12-04T02:39:21;100957.41;;;1.06;100.00
56270;BME280;42176;43.240;27.880;2023-12-04T02:41:22;100970.59;;;1.42;100.00
56270;BME280;42176;43.240;27.880;2023-12-04T02:43:23;100966.22;;;1.73;100.00
56270;BME280;42176;43.240;27.880;2023-12-04T02:45:23;100985.91;;;1.29;100.00
56270;BME280;42176;43.240;27.880;2023-12-04T02:47:24;100987.22;;;0.86;100.00
56270;BME280;42176;43.240;27.880;2023-12-04T02:49:24;100994.03;;;1.10;100.00
56270;BME280;42176;43.240;27.880;2023-12-04T02:51:25;101003.66;;;1.40;100.00
56270;BME280;42176;43.240;27.880;2023-12-04T02:53:26;101000.91;;;1.97;100.00
56270;BME280;42176;43.240;27.880;2023-12-04T02:55:28;100985.72;;;1.54;100.00
56270;BME280;42176;43.240;27.880;2023-12-04T02:57:29;100974.25;;;0.89;100.00
56270;BME280;42176;43.240;27.880;2023-12-04T02:59:29;100988.78;;;1.10;100.00
56270;BME280;42176;43.240;27.880;2023-12-04T03:01:30;100989.94;;;1.18;100.00
56270;BME280;42176;43.240;27.880;2023-12-04T03:03:30;100985.13;;;1.62;100.00
56270;BME280;42176;43.240;27.880;2023-12-04T03:05:31;100993.03;;;1.65;100.00
56270;BME280;42176;43.240;27.880;2023-12-04T03:07:32;100995.06;;;1.15;100.00
56270;BME280;42176;43.240;27.880;2023-12-04T03:09:32;100991.09;;;0.99;100.00
56270;BME280;42176;43.240;27.880;2023-12-04T03:11:33;100997.66;;;1.15;100.00
56270;BME280;42176;43.240;27.880;2023-12-04T03:13:34;100994.47;;;1.25;100.00
56270;BME280;42176;43.240;27.880;2023-12-04T03:15:34;101001.16;;;1.44;100.00
56270;BME280;42176;43.240;27.880;2023-12-04T03:17:35;100991.59;;;1.45;100.00
56270;BME280;42176;43.240;27.880;2023-12-04T03:19:36;100985.03;;;1.59;100.00
56270;BME280;42176;43.240;27.880;2023-12-04T03:21:36;100973.94;;;1.68;100.00
56270;BME280;42176;43.240;27.880;2023-12-04T03:23:37;100965.34;;;2.06;100.00
56270;BME280;42176;43.240;27.880;2023-12-04T03:25:37;100960.66;;;1.60;100.00
56270;BME280;42176;43.240;27.880;2023-12-04T03:27:38;100960.66;;;0.99;100.00
56270;BME280;42176;43.240;27.880;2023-12-04T03:29:38;100963.34;;;1.02;100.00
56270;BME280;42176;43.240;27.880;2023-12-04T03:31:39;100968.09;;;1.16;100.00
56270;BME280;42176;43.240;27.880;2023-12-04T03:33:39;100968.47;;;1.28;100.00
56270;BME280;42176;43.240;27.880;2023-12-04T03:35:40;100953.50;;;1.85;100.00
56270;BME280;42176;43.240;27.880;2023-12-04T03:37:40;100974.22;;;1.47;100.00
56270;BME280;42176;43.240;27.880;2023-12-04T03:39:41;100975.38;;;0.97;100.00
56270;BME280;42176;43.240;27.880;2023-12-04T03:41:42;100982.72;;;0.82;100.00
56270;BME280;42176;43.240;27.880;2023-12-04T03:43:42;100993.13;;;1.08;100.00
56270;BME280;42176;43.240;27.880;2023-12-04T03:45:43;101007.53;;;1.25;100.00
56270;BME280;42176;43.240;27.880;2023-12-04T03:47:44;101010.63;;;1.41;100.00
56270;BME280;42176;43.240;27.880;2023-12-04T03:49:44;101017.19;;;1.57;100.00
56270;BME280;42176;43.240;27.880;2023-12-04T03:51:45;101014.28;;;2.10;100.00
56270;BME280;42176;43.240;27.880;2023-12-04T03:53:45;101008.31;;;1.82;100.00
56270;BME280;42176;43.240;27.880;2023-12-04T03:55:46;101015.47;;;1.28;100.00
56270;BME280;42176;43.240;27.880;2023-12-04T03:57:47;101014.41;;;0.65;100.00
56270;BME280;42176;43.240;27.880;2023-12-04T03:59:47;101030.19;;;0.97;100.00
56270;BME280;42176;43.240;27.880;2023-12-04T04:01:48;101022.91;;;1.14;100.00
56270;BME280;42176;43.240;27.880;2023-12-04T04:03:48;101036.88;;;1.74;100.00
56270;BME280;42176;43.240;27.880;2023-12-04T04:05:49;101041.13;;;1.71;100.00
56270;BME280;42176;43.240;27.880;2023-12-04T04:07:49;101033.44;;;1.17;100.00
56270;BME280;42176;43.240;27.880;2023-12-04T04:09:50;101042.72;;;0.80;100.00
56270;BME280;42176;43.240;27.880;2023-12-04T04:11:50;101052.75;;;1.23;100.00
56270;BME280;42176;43.240;27.880;2023-12-04T04:13:51;101050.22;;;1.24;100.00
56270;BME280;42176;43.240;27.880;2023-12-04T04:15:51;101054.16;;;1.40;100.00
56270;BME280;42176;43.240;27.880;2023-12-04T04:17:52;101056.34;;;1.55;100.00
56270;BME280;42176;43.240;27.880;2023-12-04T04:19:53;101038.34;;;1.96;100.00
56270;BME280;42176;43.240;27.880;2023-12-04T04:21:54;101054.50;;;1.51;100.00
56270;BME280;42176;43.240;27.880;2023-12-04T04:23:54;101045.38;;;0.82;100.00
56270;BME280;42176;43.240;27.880;2023-12-04T04:25:55;101053.56;;;1.20;100.00
56270;BME280;42176;43.240;27.880;2023-12-04T04:27:55;101059.03;;;1.29;100.00
56270;BME280;42176;43.240;27.880;2023-12-04T04:29:56;101064.94;;;1.81;100.00
56270;BME280;42176;43.240;27.880;2023-12-04T04:31:57;101057.84;;;1.47;100.00
56270;BME280;42176;43.240;27.880;2023-12-04T04:33:57;101043.59;;;0.81;100.00
56270;BME280;42176;43.240;27.880;2023-12-04T04:35:58;101050.00;;;0.90;100.00
56270;BME280;42176;43.240;27.880;2023-12-04T04:37:58;101051.31;;;1.03;100.00
56270;BME280;42176;43.240;27.880;2023-12-04T04:39:59;101056.19;;;1.21;100.00
56270;BME280;42176;43.240;27.880;2023-12-04T04:42:00;101057.56;;;1.38;100.00
56270;BME280;42176;43.240;27.880;2023-12-04T04:44:00;101052.19;;;1.92;100.00
56270;BME280;42176;43.240;27.880;2023-12-04T04:46:01;101056.06;;;1.46;100.00
56270;BME280;42176;43.240;27.880;2023-12-04T04:48:01;101055.13;;;0.87;100.00
56270;BME280;42176;43.240;27.880;2023-12-04T04:50:02;101056.50;;;1.31;100.00
56270;BME280;42176;43.240;27.880;2023-12-04T04:52:03;101070.41;;;1.59;100.00
56270;BME280;42176;43.240;27.880;2023-12-04T04:54:04;101069.03;;;3.44;100.00
56270;BME280;42176;43.240;27.880;2023-12-04T04:56:05;101047.38;;;1.47;100.00
56270;BME280;42176;43.240;27.880;2023-12-04T04:58:06;101047.53;;;1.23;100.00
56270;BME280;42176;43.240;27.880;2023-12-04T05:00:07;101038.25;;;1.32;100.00
56270;BME280;42176;43.240;27.880;2023-12-04T05:02:07;101056.25;;;1.52;100.00
56270;BME280;42176;43.240;27.880;2023-12-04T05:04:08;101069.81;;;1.69;100.00
56270;BME280;42176;43.240;27.880;2023-12-04T05:06:09;101061.88;;;2.28;100.00
56270;BME280;42176;43.240;27.880;2023-12-04T05:08:09;101072.56;;;1.74;100.00
56270;BME280;42176;43.240;27.880;2023-12-04T05:10:10;101071.09;;;1.24;100.00
56270;BME280;42176;43.240;27.880;2023-12-04T05:12:11;101048.31;;;0.65;100.00
56270;BME280;42176;43.240;27.880;2023-12-04T05:14:11;101065.88;;;0.97;100.00
56270;BME280;42176;43.240;27.880;2023-12-04T05:16:12;101076.19;;;1.79;100.00
56270;BME280;42176;43.240;27.880;2023-12-04T05:18:13;101077.06;;;1.49;100.00
56270;BME280;42176;43.240;27.880;2023-12-04T05:20:13;101083.28;;;1.25;100.00
56270;BME280;42176;43.240;27.880;2023-12-04T05:22:14;101073.16;;;0.80;100.00
56270;BME280;42176;43.240;27.880;2023-12-04T05:24:15;101075.53;;;0.99;100.00
56270;BME280;42176;43.240;27.880;2023-12-04T05:26:15;101090.03;;;1.75;100.00
56270;BME280;42176;43.240;27.880;2023-12-04T05:28:16;101092.72;;;1.78;100.00
56270;BME280;42176;43.240;27.880;2023-12-04T05:30:17;101084.56;;;1.38;100.00
56270;BME280;42176;43.240;27.880;2023-12-04T05:32:17;101055.41;;;0.69;100.00
56270;BME280;42176;43.240;27.880;2023-12-04T05:34:19;101078.78;;;1.19;100.00
56270;BME280;42176;43.240;27.880;2023-12-04T05:36:20;101078.47;;;1.38;100.00
56270;BME280;42176;43.240;27.880;2023-12-04T05:38:21;101077.16;;;1.52;100.00
56270;BME280;42176;43.240;27.880;2023-12-04T05:40:22;101076.00;;;1.73;100.00
56270;BME280;42176;43.240;27.880;2023-12-04T05:42:22;101080.78;;;1.86;100.00
56270;BME280;42176;43.240;27.880;2023-12-04T05:44:23;101073.44;;;2.05;100.00
56270;BME280;42176;43.240;27.880;2023-12-04T05:46:23;101070.75;;;2.02;100.00
56270;BME280;42176;43.240;27.880;2023-12-04T05:48:24;101074.59;;;1.54;100.00
56270;BME280;42176;43.240;27.880;2023-12-04T05:50:24;101068.63;;;1.01;100.00
56270;BME280;42176;43.240;27.880;2023-12-04T05:52:25;101069.50;;;1.29;100.00
56270;BME280;42176;43.240;27.880;2023-12-04T05:54:25;101069.81;;;1.39;100.00
56270;BME280;42176;43.240;27.880;2023-12-04T05:56:26;101071.84;;;1.49;100.00
56270;BME280;42176;43.240;27.880;2023-12-04T05:58:26;101078.63;;;2.03;100.00
56270;BME280;42176;43.240;27.880;2023-12-04T06:00:27;101070.06;;;2.09;100.00
56270;BME280;42176;43.240;27.880;2023-12-04T06:02:28;101076.25;;;1.51;100.00
56270;BME280;42176;43.240;27.880;2023-12-04T06:04:30;101081.34;;;1.18;100.00
56270;BME280;42176;43.240;27.880;2023-12-04T06:06:30;101089.00;;;1.41;100.00
56270;BME280;42176;43.240;27.880;2023-12-04T06:08:32;101086.81;;;1.55;100.00
56270;BME280;42176;43.240;27.880;2023-12-04T06:10:32;101078.47;;;1.66;100.00
56270;BME280;42176;43.240;27.880;2023-12-04T06:12:35;101083.84;;;1.73;100.00
56270;BME280;42176;43.240;27.880;2023-12-04T06:14:35;101095.59;;;1.87;100.00
56270;BME280;42176;43.240;27.880;2023-12-04T06:16:37;101061.88;;;1.96;100.00
56270;BME280;42176;43.240;27.880;2023-12-04T06:18:37;101079.19;;;2.23;100.00
56270;BME280;42176;43.240;27.880;2023-12-04T06:20:38;101077.19;;;2.80;100.00
56270;BME280;42176;43.240;27.880;2023-12-04T06:22:39;101058.50;;;2.33;100.00
56270;BME280;42176;43.240;27.880;2023-12-04T06:24:40;101074.47;;;1.79;100.00
56270;BME280;42176;43.240;27.880;2023-12-04T06:26:41;101077.69;;;1.13;100.00
56270;BME280;42176;43.240;27.880;2023-12-04T06:28:44;101089.47;;;1.56;100.00
56270;BME280;42176;43.240;27.880;2023-12-04T06:30:45;101105.91;;;1.81;100.00
56270;BME280;42176;43.240;27.880;2023-12-04T06:32:46;101116.22;;;2.07;100.00
56270;BME280;42176;43.240;27.880;2023-12-04T06:34:47;101113.84;;;2.80;100.00
56270;BME280;42176;43.240;27.880;2023-12-04T06:36:48;101108.72;;;2.19;100.00
56270;BME280;42176;43.240;27.880;2023-12-04T06:38:51;101100.22;;;1.36;100.00
56270;BME280;42176;43.240;27.880;2023-12-04T06:40:53;101107.38;;;1.73;100.00
56270;BME280;42176;43.240;27.880;2023-12-04T06:42:54;101122.03;;;1.96;100.00
56270;BME280;42176;43.240;27.880;2023-12-04T06:44:55;101133.03;;;2.15;100.00
56270;BME280;42176;43.240;27.880;2023-12-04T06:46:57;101132.94;;;2.76;100.00
56270;BME280;42176;43.240;27.880;2023-12-04T06:48:59;101137.91;;;2.35;100.00
56270;BME280;42176;43.240;27.880;2023-12-04T06:50:59;101149.50;;;1.82;100.00
56270;BME280;42176;43.240;27.880;2023-12-04T06:53:00;101147.19;;;1.64;100.00
56270;BME280;42176;43.240;27.880;2023-12-04T06:55:00;101145.38;;;1.90;100.00
56270;BME280;42176;43.240;27.880;2023-12-04T06:57:01;101144.69;;;2.58;100.00
56270;BME280;42176;43.240;27.880;2023-12-04T06:59:02;101145.41;;;2.53;100.00
56270;BME280;42176;43.240;27.880;2023-12-04T07:01:02;101132.59;;;2.00;100.00
56270;BME280;42176;43.240;27.880;2023-12-04T07:03:03;101134.47;;;1.46;100.00
56270;BME280;42176;43.240;27.880;2023-12-04T07:05:04;101129.81;;;1.64;100.00
56270;BME280;42176;43.240;27.880;2023-12-04T07:07:04;101159.38;;;2.53;100.00
56270;BME280;42176;43.240;27.880;2023-12-04T07:09:06;101148.34;;;2.33;100.00
56270;BME280;42176;43.240;27.880;2023-12-04T07:11:08;101144.63;;;1.94;100.00
56270;BME280;42176;43.240;27.880;2023-12-04T07:13:09;101143.84;;;1.68;100.00
56270;BME280;42176;43.240;27.880;2023-12-04T07:15:10;101147.63;;;1.78;100.00
56270;BME280;42176;43.240;27.880;2023-12-04T07:17:11;101157.22;;;2.08;100.00
56270;BME280;42176;43.240;27.880;2023-12-04T07:19:12;101147.91;;;2.48;100.00
56270;BME280;42176;43.240;27.880;2023-12-04T07:21:15;101146.41;;;1.95;100.00
56270;BME280;42176;43.240;27.880;2023-12-04T07:23:15;101142.97;;;1.67;100.00
56270;BME280;42176;43.240;27.880;2023-12-04T07:25:16;101148.09;;;1.93;100.00
56270;BME280;42176;43.240;27.880;2023-12-04T07:27:16;101147.78;;;2.13;100.00
56270;BME280;42176;43.240;27.880;2023-12-04T07:29:17;101150.75;;;2.25;100.00
56270;BME280;42176;43.240;27.880;2023-12-04T07:31:18;101146.03;;;2.44;100.00
56270;BME280;42176;43.240;27.880;2023-12-04T07:33:18;101135.22;;;2.64;100.00
56270;BME280;42176;43.240;27.880;2023-12-04T07:35:19;101141.84;;;2.84;100.00
56270;BME280;42176;43.240;27.880;2023-12-04T07:37:19;101143.38;;;3.10;100.00
56270;BME280;42176;43.240;27.880;2023-12-04T07:39:20;101144.63;;;3.26;100.00
56270;BME280;42176;43.240;27.880;2023-12-04T07:41:21;101130.44;;;3.17;100.00
56270;BME280;42176;43.240;27.880;2023-12-04T07:43:22;101148.53;;;3.43;100.00
56270;BME280;42176;43.240;27.880;2023-12-04T07:45:22;101143.22;;;3.40;100.00
56270;BME280;42176;43.240;27.880;2023-12-04T07:47:24;101156.41;;;2.41;100.00
56270;BME280;42176;43.240;27.880;2023-12-04T07:49:24;101159.28;;;1.60;100.00
56270;BME280;42176;43.240;27.880;2023-12-04T07:51:25;101159.97;;;1.53;100.00
56270;BME280;42176;43.240;27.880;2023-12-04T07:53:25;101159.06;;;1.81;100.00
56270;BME280;42176;43.240;27.880;2023-12-04T07:55:26;101176.09;;;2.28;100.00
56270;BME280;42176;43.240;27.880;2023-12-04T07:57:26;101172.50;;;2.55;100.00
56270;BME280;42176;43.240;27.880;2023-12-04T07:59:27;101165.56;;;1.94;100.00
56270;BME280;42176;43.240;27.880;2023-12-04T08:01:27;101164.13;;;1.20;100.00
56270;BME280;42176;43.240;27.880;2023-12-04T08:03:30;101169.56;;;1.54;100.00
56270;BME280;42176;43.240;27.880;2023-12-04T08:05:31;101176.94;;;1.96;100.00
56270;BME280;42176;43.240;27.880;2023-12-04T08:07:32;101174.91;;;2.79;100.00
56270;BME280;42176;43.240;27.880;2023-12-04T08:09:32;101168.84;;;2.48;100.00
56270;BME280;42176;43.240;27.880;2023-12-04T08:11:33;101164.00;;;1.71;100.00
56270;BME280;42176;43.240;27.880;2023-12-04T08:13:34;101167.47;;;1.44;100.00
56270;BME280;42176;43.240;27.880;2023-12-04T08:15:35;101179.59;;;1.69;100.00
56270;BME280;42176;43.240;27.880;2023-12-04T08:17:35;101186.59;;;1.99;100.00
56270;BME280;42176;43.240;27.880;2023-12-04T08:19:36;101179.31;;;2.18;100.00
56270;BME280;42176;43.240;27.880;2023-12-04T08:21:38;101189.78;;;2.48;100.00
56270;BME280;42176;43.240;27.880;2023-12-04T08:23:38;101181.06;;;2.49;100.00
56270;BME280;42176;43.240;27.880;2023-12-04T08:25:39;101183.75;;;2.84;100.00
56270;BME280;42176;43.240;27.880;2023-12-04T08:27:40;101173.69;;;3.00;100.00
56270;BME280;42176;43.240;27.880;2023-12-04T08:29:40;101175.16;;;3.24;100.00
56270;BME280;42176;43.240;27.880;2023-12-04T08:31:41;101181.06;;;2.49;100.00
56270;BME280;42176;43.240;27.880;2023-12-04T08:33:41;101180.69;;;1.76;100.00
56270;BME280;42176;43.240;27.880;2023-12-04T08:35:42;101175.19;;;1.66;100.00
56270;BME280;42176;43.240;27.880;2023-12-04T08:37:43;101182.81;;;1.89;100.00
56270;BME280;42176;43.240;27.880;2023-12-04T08:39:43;101192.34;;;2.47;100.00
56270;BME280;42176;43.240;27.880;2023-12-04T08:41:47;101175.66;;;2.75;100.00
56270;BME280;42176;43.240;27.880;2023-12-04T08:43:47;101181.97;;;2.19;100.00
56270;BME280;42176;43.240;27.880;2023-12-04T08:45:48;101170.88;;;1.40;100.00
56270;BME280;42176;43.240;27.880;2023-12-04T08:47:48;101169.75;;;1.60;100.00
56270;BME280;42176;43.240;27.880;2023-12-04T08:49:50;101182.19;;;1.96;100.00
56270;BME280;42176;43.240;27.880;2023-12-04T08:51:53;101178.75;;;2.60;100.00
56270;BME280;42176;43.240;27.880;2023-12-04T08:53:54;101169.91;;;2.24;100.00
56270;BME280;42176;43.240;27.880;2023-12-04T08:55:54;101169.66;;;1.57;100.00
56270;BME280;42176;43.240;27.880;2023-12-04T08:57:55;101173.03;;;1.53;100.00
56270;BME280;42176;43.240;27.880;2023-12-04T08:59:55;101172.94;;;1.79;100.00
56270;BME280;42176;43.240;27.880;2023-12-04T09:01:56;101178.84;;;2.63;100.00
56270;BME280;42176;43.240;27.880;2023-12-04T09:03:56;101168.41;;;2.33;100.00
56270;BME280;42176;43.240;27.880;2023-12-04T09:05:57;101170.78;;;1.65;100.00
56270;BME280;42176;43.240;27.880;2023-12-04T09:07:58;101184.13;;;1.75;100.00
56270;BME280;42176;43.240;27.880;2023-12-04T09:09:59;101182.53;;;2.09;100.00
56270;BME280;42176;43.240;27.880;2023-12-04T09:12:00;101181.00;;;2.46;100.00
56270;BME280;42176;43.240;27.880;2023-12-04T09:14:00;101177.75;;;2.88;100.00
56270;BME280;42176;43.240;27.880;2023-12-04T09:16:01;101180.38;;;2.24;100.00
56270;BME280;42176;43.240;27.880;2023-12-04T09:18:02;101181.38;;;1.43;100.00
56270;BME280;42176;43.240;27.880;2023-12-04T09:20:03;101173.88;;;1.81;100.00
56270;BME280;42176;43.240;27.880;2023-12-04T09:22:06;101174.06;;;2.18;100.00
56270;BME280;42176;43.240;27.880;2023-12-04T09:24:06;101177.34;;;2.41;100.00
56270;BME280;42176;43.240;27.880;2023-12-04T09:26:07;101164.66;;;2.88;100.00
56270;BME280;42176;43.240;27.880;2023-12-04T09:28:07;101132.03;;;2.42;100.00
56270;BME280;42176;43.240;27.880;2023-12-04T09:30:08;101171.59;;;2.22;100.00
56270;BME280;42176;43.240;27.880;2023-12-04T09:32:09;101182.34;;;1.74;100.00
56270;BME280;42176;43.240;27.880;2023-12-04T09:34:10;101177.31;;;2.09;100.00
56270;BME280;42176;43.240;27.880;2023-12-04T09:36:11;101172.78;;;2.34;100.00
56270;BME280;42176;43.240;27.880;2023-12-04T09:38:11;101172.19;;;2.76;100.00
56270;BME280;42176;43.240;27.880;2023-12-04T09:40:12;101177.00;;;2.28;100.00
56270;BME280;42176;43.240;27.880;2023-12-04T09:42:13;101164.41;;;1.57;100.00
56270;BME280;42176;43.240;27.880;2023-12-04T09:44:14;101169.00;;;1.93;100.00
56270;BME280;42176;43.240;27.880;2023-12-04T09:46:16;101171.59;;;2.22;100.00
56270;BME280;42176;43.240;27.880;2023-12-04T09:48:17;101159.66;;;2.64;100.00
56270;BME280;42176;43.240;27.880;2023-12-04T09:50:18;101156.38;;;2.71;100.00
56270;BME280;42176;43.240;27.880;2023-12-04T09:52:21;101151.47;;;2.20;100.00
56270;BME280;42176;43.240;27.880;2023-12-04T09:54:22;101160.59;;;1.75;100.00
56270;BME280;42176;43.240;27.880;2023-12-04T09:56:23;101156.56;;;2.15;100.00
56270;BME280;42176;43.240;27.880;2023-12-04T09:58:25;101149.50;;;2.43;100.00
56270;BME280;42176;43.240;27.880;2023-12-04T10:00:29;101126.78;;;2.42;100.00
56270;BME280;42176;43.240;27.880;2023-12-04T10:02:31;101134.94;;;2.86;100.00
56270;BME280;42176;43.240;27.880;2023-12-04T10:04:32;101124.75;;;2.99;100.00
56270;BME280;42176;43.240;27.880;2023-12-04T10:06:37;101128.59;;;3.13;100.00
56270;BME280;42176;43.240;27.880;2023-12-04T10:08:39;101113.88;;;3.18;100.00
56270;BME280;42176;43.240;27.880;2023-12-04T10:10:39;101125.56;;;3.33;100.00
56270;BME280;42176;43.240;27.880;2023-12-04T10:12:40;101117.94;;;3.42;100.00
56270;BME280;42176;43.240;27.880;2023-12-04T10:14:40;101119.84;;;3.49;100.00
56270;BME280;42176;43.240;27.880;2023-12-04T10:16:41;101104.69;;;3.36;100.00
56270;BME280;42176;43.240;27.880;2023-12-04T10:18:42;101110.34;;;3.55;100.00
56270;BME280;42176;43.240;27.880;2023-12-04T10:21:00;101103.41;;;3.57;100.00
56270;BME280;42176;43.240;27.880;2023-12-04T10:23:03;101113.06;;;3.58;100.00
56270;BME280;42176;43.240;27.880;2023-12-04T10:25:16;101110.53;;;3.64;100.00
56270;BME280;42176;43.240;27.880;2023-12-04T10:27:18;101107.94;;;3.64;100.00